Time;durP1;ratioP1;P1;durP2;ratioP2;P2;SDS_P1;SDS_P2;PMS_P1;PMS_P2;Temp;Humidity;BMP_temperature;BMP_pressure;BME280_temperature;BME280_humidity;BME280_pressure;Samples;Min_cycle;Max_cycle;Signal;HPM_P1;HPM_P2
2023/03/27 00:01:18;;;;;;;10.23;2.17;;;2.00;99.90;;;;;;5032537;28;20128;-41
2023/03/27 00:03:48;;;;;;;9.23;1.70;;;2.00;99.90;;;;;;5033045;28;20055;-42
2023/03/27 00:06:15;;;;;;;7.20;1.85;;;2.00;99.90;;;;;;5034656;28;20127;-38
2023/03/27 00:08:42;;;;;;;10.55;1.60;;;2.00;99.90;;;;;;5032944;28;20056;-40
2023/03/27 00:11:08;;;;;;;7.70;1.95;;;2.00;99.90;;;;;;5034431;28;20175;-45
2023/03/27 00:13:35;;;;;;;9.18;1.75;;;2.00;99.90;;;;;;5030960;28;20151;-36
2023/03/27 00:16:01;;;;;;;12.52;1.95;;;2.00;99.90;;;;;;5032955;28;20053;-41
2023/03/27 00:18:28;;;;;;;13.63;1.92;;;1.90;99.90;;;;;;5031096;28;20048;-41
2023/03/27 00:20:57;;;;;;;7.97;1.55;;;1.90;99.90;;;;;;5031914;28;20092;-40
2023/03/27 00:23:23;;;;;;;7.03;1.40;;;1.90;99.90;;;;;;5032272;28;20110;-38
2023/03/27 00:25:50;;;;;;;8.45;1.90;;;1.80;99.90;;;;;;5031673;28;20049;-36
2023/03/27 00:28:19;;;;;;;7.28;1.48;;;1.80;99.90;;;;;;5033312;28;20048;-44
2023/03/27 00:30:46;;;;;;;8.40;2.13;;;1.80;99.90;;;;;;5031106;28;20045;-47
2023/03/27 00:33:13;;;;;;;11.68;2.35;;;1.70;99.90;;;;;;5033343;28;20045;-46
2023/03/27 00:35:44;;;;;;;7.20;1.92;;;1.70;99.90;;;;;;5034046;28;20045;-51
2023/03/27 00:38:10;;;;;;;6.05;1.38;;;1.70;99.90;;;;;;5032414;28;20053;-50
2023/03/27 00:40:37;;;;;;;6.90;1.90;;;1.70;99.90;;;;;;5031153;28;20506;-44
2023/03/27 00:43:19;;;;;;;10.15;2.20;;;1.60;99.90;;;;;;5033436;28;20045;-42
2023/03/27 00:45:46;;;;;;;9.20;1.52;;;1.60;99.90;;;;;;5033109;28;20049;-46
2023/03/27 00:48:14;;;;;;;6.72;1.48;;;1.50;99.90;;;;;;5030320;28;20558;-45
2023/03/27 00:50:42;;;;;;;5.65;1.42;;;1.50;99.90;;;;;;5029179;28;20066;-47
2023/03/27 00:53:18;;;;;;;4.15;1.50;;;1.50;99.90;;;;;;5033536;28;20041;-40
2023/03/27 00:55:48;;;;;;;10.30;1.30;;;1.50;99.90;;;;;;5031551;28;20075;-45
2023/03/27 00:58:18;;;;;;;8.30;1.60;;;1.50;99.90;;;;;;5032474;28;20596;-42
2023/03/27 01:00:45;;;;;;;8.98;1.45;;;1.50;99.90;;;;;;5031541;28;20052;-47
2023/03/27 01:03:11;;;;;;;6.50;1.30;;;1.60;99.90;;;;;;5032798;28;20147;-42
2023/03/27 01:05:37;;;;;;;5.10;1.40;;;1.60;99.90;;;;;;5030551;28;20080;-43
2023/03/27 01:08:03;;;;;;;4.43;1.27;;;1.60;99.90;;;;;;5032915;28;20049;-38
2023/03/27 01:11:03;;;;;;;5.20;1.17;;;1.60;99.90;;;;;;5033080;28;20053;-36
2023/03/27 01:13:46;;;;;;;7.93;1.65;;;1.60;99.90;;;;;;5028934;28;20584;-37
2023/03/27 01:16:22;;;;;;;8.48;1.70;;;1.60;99.90;;;;;;5031189;28;20044;-43
2023/03/27 01:19:23;;;;;;;4.53;1.15;;;1.50;99.90;;;;;;5030260;28;20148;-40
2023/03/27 01:22:25;;;;;;;5.47;1.52;;;1.50;99.90;;;;;;5028749;28;20048;-39
2023/03/27 01:25:24;;;;;;;11.15;2.17;;;1.50;99.90;;;;;;5030365;28;20080;-42
2023/03/27 01:28:11;;;;;;;6.30;1.50;;;1.50;99.90;;;;;;5030379;28;20060;-42
2023/03/27 01:31:01;;;;;;;5.95;2.15;;;1.40;99.90;;;;;;5032146;28;20071;-43
2023/03/27 01:33:41;;;;;;;5.82;1.73;;;1.40;99.90;;;;;;5030842;28;20037;-42
2023/03/27 01:36:26;;;;;;;5.65;1.40;;;1.40;99.90;;;;;;5029986;28;20091;-40
2023/03/27 01:39:09;;;;;;;7.40;1.33;;;1.40;99.90;;;;;;5029772;28;20514;-44
2023/03/27 01:41:35;;;;;;;;;;;1.30;99.90;;;;;;5032513;28;20792;-40
2023/03/27 01:44:10;;;;;;;4.68;1.27;;;1.30;99.90;;;;;;5029345;28;19924;-45
2023/03/27 01:46:41;;;;;;;12.63;2.45;;;1.30;99.90;;;;;;5031212;28;20204;-42
2023/03/27 01:49:21;;;;;;;6.72;1.45;;;1.30;99.90;;;;;;5032623;28;20068;-42
2023/03/27 01:51:57;;;;;;;8.25;1.67;;;1.30;99.90;;;;;;5031639;28;20056;-42
2023/03/27 01:54:33;;;;;;;9.80;1.92;;;1.20;99.90;;;;;;5029871;28;20193;-47
2023/03/27 01:57:01;;;;;;;7.15;2.00;;;1.20;99.90;;;;;;5031603;28;20045;-36
2023/03/27 01:59:30;;;;;;;5.13;1.65;;;1.20;99.90;;;;;;5027889;28;20488;-41
2023/03/27 02:02:04;;;;;;;7.25;1.63;;;1.30;99.90;;;;;;5018848;28;20094;-46
2023/03/27 02:04:39;;;;;;;8.13;1.90;;;1.40;99.90;;;;;;5014583;28;20103;-38
2023/03/27 02:07:11;;;;;;;8.07;1.60;;;1.50;99.90;;;;;;5019484;28;20053;-41
2023/03/27 02:09:48;;;;;;;4.28;1.23;;;1.60;99.90;;;;;;5020637;28;20503;-39
2023/03/27 02:12:19;;;;;;;9.68;1.40;;;1.80;99.90;;;;;;5014910;28;20135;-38
2023/03/27 02:15:02;;;;;;;4.63;1.50;;;1.90;99.90;;;;;;5029988;28;20056;-46
2023/03/27 02:17:32;;;;;;;5.68;2.13;;;1.90;99.90;;;;;;5034486;28;20224;-45
2023/03/27 02:20:15;;;;;;;7.68;1.77;;;1.90;99.90;;;;;;5020893;28;20512;-42
2023/03/27 02:22:47;;;;;;;4.25;1.20;;;1.90;99.90;;;;;;5020618;28;20045;-39
2023/03/27 02:25:33;;;;;;;8.23;1.65;;;1.90;99.90;;;;;;5034694;28;20599;-40
2023/03/27 02:28:33;;;;;;;6.78;1.63;;;1.90;99.90;;;;;;5020751;28;20059;-40
2023/03/27 02:31:26;;;;;;;7.68;1.48;;;1.90;99.90;;;;;;5034565;28;20436;-38
2023/03/27 02:34:22;;;;;;;5.30;1.10;;;1.90;99.90;;;;;;5014542;28;20049;-46
2023/03/27 02:37:05;;;;;;;4.40;1.20;;;1.90;99.90;;;;;;5028432;28;20049;-47
2023/03/27 02:39:53;;;;;;;6.47;1.40;;;1.80;99.90;;;;;;5024322;28;20510;-45
2023/03/27 02:42:22;;;;;;;8.48;1.73;;;1.80;99.90;;;;;;5037028;28;20060;-44
2023/03/27 02:45:07;;;;;;;5.97;1.40;;;1.70;99.90;;;;;;5037840;28;20048;-46
2023/03/27 02:47:40;;;;;;;6.95;1.40;;;1.70;99.90;;;;;;5037100;28;20055;-42
2023/03/27 02:50:09;;;;;;;;;;;1.60;99.90;;;;;;5039319;28;20135;-39
2023/03/27 02:52:43;;;;;;;7.60;1.50;;;1.60;99.90;;;;;;5023810;28;19937;-44
2023/03/27 02:55:39;;;;;;;6.13;1.38;;;1.60;99.90;;;;;;5017805;28;20147;-37
2023/03/27 02:58:13;;;;;;;7.40;1.48;;;1.60;99.90;;;;;;5028303;28;20080;-41
2023/03/27 03:00:43;;;;;;;10.07;1.70;;;1.70;99.90;;;;;;5019399;28;20102;-40
2023/03/27 03:03:19;;;;;;;7.57;2.15;;;1.80;99.90;;;;;;5029892;28;20057;-50
2023/03/27 03:05:45;;;;;;;7.45;2.03;;;2.00;99.90;;;;;;5037576;28;20056;-42
2023/03/27 03:08:10;;;;;;;8.27;2.30;;;2.00;99.90;;;;;;5051725;28;20396;-41
2023/03/27 03:10:43;;;;;;;9.23;1.98;;;2.00;99.90;;;;;;5037749;28;20085;-39
2023/03/27 03:13:09;;;;;;;9.65;1.98;;;2.00;99.90;;;;;;5023688;28;20108;-38
2023/03/27 03:15:35;;;;;;;8.10;2.15;;;2.00;99.90;;;;;;5012703;28;20054;-45
2023/03/27 03:18:01;;;;;;;8.27;2.05;;;1.90;99.90;;;;;;5030579;28;20405;-38
2023/03/27 03:20:28;;;;;;;8.32;1.33;;;1.90;99.90;;;;;;5036914;28;20087;-43
2023/03/27 03:22:56;;;;;;;4.57;1.65;;;1.90;99.90;;;;;;5036056;28;20045;-36
2023/03/27 03:25:24;;;;;;;4.82;1.02;;;1.90;99.90;;;;;;5028089;28;20053;-42
2023/03/27 03:27:56;;;;;;;3.97;1.10;;;1.80;99.90;;;;;;5029798;28;20053;-38
2023/03/27 03:30:27;;;;;;;6.15;1.38;;;1.70;99.90;;;;;;5026169;28;20077;-40
2023/03/27 03:32:53;;;;;;;5.97;1.30;;;1.60;99.90;;;;;;5028535;28;20045;-43
2023/03/27 03:35:21;;;;;;;6.57;1.83;;;1.50;99.90;;;;;;5027328;28;20045;-36
2023/03/27 03:37:49;;;;;;;5.93;1.42;;;1.50;99.90;;;;;;5035425;28;20045;-41
2023/03/27 03:40:15;;;;;;;9.32;1.92;;;1.40;99.90;;;;;;5035346;28;20555;-45
2023/03/27 03:42:49;;;;;;;4.93;1.80;;;1.40;99.90;;;;;;5035751;28;20060;-39
2023/03/27 03:45:16;;;;;;;4.75;1.50;;;1.30;99.90;;;;;;5036412;28;20052;-44
2023/03/27 03:47:42;;;;;;;6.70;1.50;;;1.30;99.90;;;;;;5035388;28;20051;-44
2023/03/27 03:50:09;;;;;;;7.43;1.60;;;1.30;99.90;;;;;;5025484;28;20053;-41
2023/03/27 03:52:35;;;;;;;7.25;1.83;;;1.30;99.90;;;;;;5032684;28;20514;-42
2023/03/27 03:55:03;;;;;;;9.30;2.17;;;1.30;99.90;;;;;;5037077;28;20045;-48
2023/03/27 03:57:29;;;;;;;6.40;2.03;;;1.30;99.90;;;;;;5036227;28;20358;-37
2023/03/27 03:59:57;;;;;;;6.07;2.15;;;1.30;99.90;;;;;;5036573;28;20047;-43
2023/03/27 04:02:29;;;;;;;9.60;1.98;;;1.30;99.90;;;;;;5023555;28;20084;-45
2023/03/27 04:04:57;;;;;;;6.85;2.75;;;1.30;99.90;;;;;;5014586;28;20045;-46
2023/03/27 04:07:23;;;;;;;8.38;2.05;;;1.30;99.90;;;;;;5033407;28;20249;-44
2023/03/27 04:09:50;;;;;;;9.57;2.17;;;1.40;99.90;;;;;;5023511;28;20057;-37
2023/03/27 04:12:17;;;;;;;10.00;2.20;;;1.40;99.90;;;;;;5028467;28;20057;-44
2023/03/27 04:14:43;;;;;;;9.57;2.40;;;1.40;99.90;;;;;;5029230;28;20151;-43
2023/03/27 04:17:10;;;;;;;13.60;4.88;;;1.50;99.90;;;;;;5023727;28;20049;-50
2023/03/27 04:19:35;;;;;;;12.02;2.47;;;1.50;99.90;;;;;;5031366;28;20049;-43
2023/03/27 04:22:02;;;;;;;10.85;2.47;;;1.50;99.90;;;;;;5035526;28;20416;-44
2023/03/27 04:24:30;;;;;;;10.13;2.33;;;1.50;99.90;;;;;;5036002;28;20412;-45
2023/03/27 04:27:02;;;;;;;11.77;1.88;;;1.50;99.90;;;;;;5036098;28;20053;-42
2023/03/27 04:29:33;;;;;;;12.20;2.75;;;1.60;99.90;;;;;;5021866;28;20057;-45
2023/03/27 04:31:59;;;;;;;10.05;2.50;;;1.50;99.90;;;;;;5030133;28;20049;-43
2023/03/27 04:34:25;;;;;;;8.32;2.40;;;1.50;99.90;;;;;;5032345;28;20770;-37
2023/03/27 04:36:51;;;;;;;9.55;2.25;;;1.50;99.90;;;;;;5024303;28;20055;-40
2023/03/27 04:39:18;;;;;;;7.90;2.20;;;1.40;99.90;;;;;;5021880;28;20067;-42
2023/03/27 04:41:52;;;;;;;9.30;1.88;;;1.40;99.90;;;;;;5025462;28;20487;-44
2023/03/27 04:44:18;;;;;;;9.75;2.70;;;1.40;99.90;;;;;;5021778;28;20044;-45
2023/03/27 04:46:47;;;;;;;8.77;2.47;;;1.40;99.90;;;;;;5035821;28;20056;-46
2023/03/27 04:49:15;;;;;;;10.38;2.67;;;1.40;99.90;;;;;;5017574;28;20128;-43
2023/03/27 04:51:41;;;;;;;11.82;2.83;;;1.30;99.90;;;;;;5015870;28;20621;-46
2023/03/27 04:54:07;;;;;;;9.02;2.55;;;1.30;99.90;;;;;;5019778;28;20529;-39
2023/03/27 04:56:33;;;;;;;11.23;2.33;;;1.30;99.90;;;;;;5033129;28;20049;-41
2023/03/27 04:59:01;;;;;;;8.50;2.78;;;1.30;99.90;;;;;;5021077;28;20064;-42
2023/03/27 05:01:27;;;;;;;8.27;2.35;;;1.20;99.90;;;;;;5033935;28;20086;-40
2023/03/27 05:03:53;;;;;;;7.28;2.28;;;1.20;99.90;;;;;;5029839;28;20120;-44
2023/03/27 05:06:19;;;;;;;6.32;2.03;;;1.30;99.90;;;;;;5027130;28;20048;-39
2023/03/27 05:08:45;;;;;;;12.25;2.20;;;1.20;99.90;;;;;;5020816;28;20124;-41
2023/03/27 05:11:11;;;;;;;6.80;2.03;;;1.30;99.90;;;;;;5034985;28;20495;-44
2023/03/27 05:13:37;;;;;;;10.10;2.33;;;1.30;99.90;;;;;;5033346;28;20578;-42
2023/03/27 05:16:03;;;;;;;11.05;2.03;;;1.30;99.90;;;;;;5035198;28;20040;-43
2023/03/27 05:18:29;;;;;;;9.18;2.20;;;1.30;99.90;;;;;;5019651;28;20487;-40
2023/03/27 05:20:56;;;;;;;11.90;2.50;;;1.30;99.90;;;;;;5015254;28;20056;-45
2023/03/27 05:23:22;;;;;;;13.80;2.28;;;1.40;99.90;;;;;;5019738;28;20116;-39
2023/03/27 05:25:47;;;;;;;8.50;2.15;;;1.40;99.90;;;;;;5032815;28;20578;-43
2023/03/27 05:28:14;;;;;;;8.60;2.58;;;1.40;99.90;;;;;;5034906;28;20049;-45
2023/03/27 05:30:41;;;;;;;6.75;1.80;;;1.40;99.90;;;;;;5035644;28;20053;-44
2023/03/27 05:33:07;;;;;;;8.65;1.92;;;1.40;99.90;;;;;;5034305;28;20436;-39
2023/03/27 05:35:33;;;;;;;7.97;1.90;;;1.40;99.90;;;;;;5033444;28;20044;-41
2023/03/27 05:37:59;;;;;;;8.10;2.75;;;1.40;99.90;;;;;;5034404;28;20052;-48
2023/03/27 05:40:27;;;;;;;10.85;1.73;;;1.50;99.90;;;;;;5022138;28;20063;-43
2023/03/27 05:42:54;;;;;;;6.63;1.77;;;1.50;99.90;;;;;;5027649;28;20423;-40
2023/03/27 05:45:21;;;;;;;10.23;1.98;;;1.60;99.90;;;;;;5027875;28;20491;-43
2023/03/27 05:47:55;;;;;;;7.97;2.10;;;1.70;99.90;;;;;;5033820;28;20072;-39
2023/03/27 05:50:25;;;;;;;6.38;1.67;;;1.80;99.90;;;;;;5020731;28;20072;-41
2023/03/27 05:52:59;;;;;;;7.75;1.50;;;1.90;99.90;;;;;;5026587;28;20045;-37
2023/03/27 05:55:26;;;;;;;6.03;1.60;;;2.00;99.90;;;;;;5015857;28;20053;-43
2023/03/27 05:57:52;;;;;;;9.35;2.17;;;2.00;99.90;;;;;;5014514;28;20099;-41
2023/03/27 06:00:23;;;;;;;6.25;1.55;;;2.00;99.90;;;;;;5015132;28;20056;-42
2023/03/27 06:02:52;;;;;;;7.60;1.75;;;1.90;99.90;;;;;;5026036;28;20053;-44
2023/03/27 06:05:18;;;;;;;7.95;1.67;;;1.90;99.90;;;;;;5015220;28;20107;-43
2023/03/27 06:07:45;;;;;;;6.32;1.50;;;2.30;99.90;;;;;;5014627;28;20096;-43
2023/03/27 06:10:13;;;;;;;8.15;1.67;;;3.00;99.90;;;;;;5020770;28;20122;-40
2023/03/27 06:12:40;;;;;;;5.72;1.55;;;3.40;99.90;;;;;;5027630;28;20414;-44
2023/03/27 06:15:08;;;;;;;7.05;1.65;;;3.20;99.90;;;;;;5020436;28;20486;-42
2023/03/27 06:17:35;;;;;;;5.68;1.42;;;3.10;99.90;;;;;;5019302;28;20514;-40
2023/03/27 06:20:10;;;;;;;9.85;1.42;;;2.80;99.90;;;;;;5033040;28;20053;-37
2023/03/27 06:22:42;;;;;;;6.10;1.55;;;2.70;99.90;;;;;;5029418;28;20037;-38
2023/03/27 06:25:08;;;;;;;4.97;1.13;;;2.50;99.90;;;;;;5030918;28;20053;-41
2023/03/27 06:27:34;;;;;;;7.50;1.45;;;2.50;99.90;;;;;;5030031;28;20932;-47
2023/03/27 06:30:00;;;;;;;8.77;1.95;;;2.90;99.90;;;;;;5025483;28;20053;-41
2023/03/27 06:32:25;;;;;;;9.55;1.60;;;4.30;99.90;;;;;;5037753;28;20091;-40
2023/03/27 06:34:51;;;;;;;10.32;1.67;;;5.90;99.90;;;;;;5035121;28;20698;-39
2023/03/27 06:37:17;;;;;;;7.32;1.75;;;7.20;99.90;;;;;;5037435;28;20041;-42
2023/03/27 06:39:43;;;;;;;6.75;1.23;;;8.20;99.90;;;;;;5034909;28;20099;-43
2023/03/27 06:42:09;;;;;;;5.35;1.52;;;8.90;99.90;;;;;;5025781;28;20049;-51
2023/03/27 06:44:35;;;;;;;6.35;1.67;;;9.60;99.90;;;;;;5035820;28;20048;-46
2023/03/27 06:47:00;;;;;;;7.70;1.20;;;10.20;99.90;;;;;;5037649;28;20053;-44
2023/03/27 06:49:26;;;;;;;5.68;1.20;;;10.70;99.90;;;;;;5029783;28;20049;-49
2023/03/27 06:51:52;;;;;;;5.38;1.02;;;11.40;99.90;;;;;;5017334;28;20131;-47
2023/03/27 06:54:17;;;;;;;4.22;1.23;;;11.70;99.90;;;;;;5029555;28;20642;-46
2023/03/27 06:56:43;;;;;;;4.80;1.50;;;11.80;99.90;;;;;;5018616;28;20053;-43
2023/03/27 06:59:09;;;;;;;8.85;2.15;;;11.70;99.90;;;;;;5028324;28;20048;-52
2023/03/27 07:01:35;;;;;;;6.50;1.67;;;11.20;99.90;;;;;;5034309;28;20102;-48
2023/03/27 07:04:01;;;;;;;5.28;1.30;;;10.60;99.90;;;;;;5033889;28;20053;-45
2023/03/27 07:06:26;;;;;;;5.60;1.30;;;10.30;99.90;;;;;;5032018;28;20076;-42
2023/03/27 07:08:52;;;;;;;6.90;1.77;;;10.10;99.90;;;;;;5033344;28;20048;-42
2023/03/27 07:11:18;;;;;;;6.15;1.40;;;9.90;99.90;;;;;;5033732;28;20080;-43
2023/03/27 07:13:43;;;;;;;6.93;1.55;;;9.80;99.90;;;;;;5030247;28;20791;-42
2023/03/27 07:16:13;;;;;;;9.00;1.63;;;9.40;99.90;;;;;;5032358;28;20556;-49
2023/03/27 07:18:40;;;;;;;8.35;1.63;;;9.50;99.90;;;;;;5033365;28;20053;-43
2023/03/27 07:21:07;;;;;;;10.73;3.15;;;9.40;99.90;;;;;;5033515;28;20407;-49
2023/03/27 07:23:33;;;;;;;7.93;1.77;;;9.30;99.90;;;;;;5033164;28;20061;-45
2023/03/27 07:26:00;;;;;;;4.80;1.30;;;9.30;99.90;;;;;;5032379;28;20041;-45
2023/03/27 07:28:26;;;;;;;8.85;1.90;;;9.30;99.90;;;;;;5031983;28;20044;-53
2023/03/27 07:30:52;;;;;;;10.02;2.10;;;8.90;99.90;;;;;;5032329;28;20048;-53
2023/03/27 07:33:18;;;;;;;8.02;1.25;;;8.10;99.90;;;;;;5030060;28;20435;-45
2023/03/27 07:35:45;;;;;;;4.47;1.05;;;7.40;99.90;;;;;;5033259;28;20036;-46
2023/03/27 07:38:11;;;;;;;5.90;1.48;;;6.90;99.90;;;;;;5027829;28;20079;-42
2023/03/27 07:40:37;;;;;;;7.97;2.05;;;6.80;99.90;;;;;;5033702;28;20068;-50
2023/03/27 07:43:06;;;;;;;5.25;1.30;;;6.80;99.90;;;;;;5030533;28;20579;-42
2023/03/27 07:45:32;;;;;;;5.18;1.40;;;7.00;99.90;;;;;;5033791;28;20133;-48
2023/03/27 07:48:10;;;;;;;3.60;1.27;;;7.20;99.90;;;;;;5030716;28;20545;-42
2023/03/27 07:50:36;;;;;;;3.75;0.98;;;7.50;99.90;;;;;;5030294;28;20076;-44
2023/03/27 07:53:03;;;;;;;7.15;1.42;;;7.60;99.90;;;;;;5031449;28;20049;-44
2023/03/27 07:55:29;;;;;;;9.98;1.73;;;7.80;99.90;;;;;;5028668;28;20566;-39
2023/03/27 07:57:55;;;;;;;9.80;2.10;;;8.10;99.90;;;;;;5033331;28;20543;-37
2023/03/27 08:00:24;;;;;;;9.18;1.52;;;8.00;99.90;;;;;;5032189;28;20044;-43
2023/03/27 08:02:50;;;;;;;5.90;1.70;;;7.90;99.90;;;;;;5031214;28;20045;-38
2023/03/27 08:05:17;;;;;;;8.32;1.50;;;8.10;99.90;;;;;;5031862;28;20076;-47
2023/03/27 08:07:47;;;;;;;9.45;1.80;;;8.10;99.90;;;;;;5030957;28;20570;-45
2023/03/27 08:10:14;;;;;;;5.68;1.20;;;8.20;99.90;;;;;;5032575;28;20060;-51
2023/03/27 08:12:41;;;;;;;8.25;1.60;;;8.40;99.90;;;;;;5033418;28;20056;-46
2023/03/27 08:15:08;;;;;;;5.85;1.20;;;8.50;99.90;;;;;;5032211;28;20515;-46
2023/03/27 08:17:34;;;;;;;7.72;1.77;;;8.70;99.90;;;;;;5033010;28;20614;-45
2023/03/27 08:20:07;;;;;;;8.13;1.85;;;8.50;99.90;;;;;;5031649;28;20108;-38
2023/03/27 08:22:35;;;;;;;10.50;1.70;;;8.60;99.90;;;;;;5028246;28;20041;-47
2023/03/27 08:25:03;;;;;;;11.05;2.38;;;8.70;99.90;;;;;;5029491;28;20160;-43
2023/03/27 08:27:30;;;;;;;10.10;2.42;;;8.50;99.90;;;;;;5031962;28;20045;-42
2023/03/27 08:29:57;;;;;;;8.68;2.30;;;8.20;99.90;;;;;;5033925;28;20044;-47
2023/03/27 08:32:22;;;;;;;11.13;1.90;;;7.70;99.90;;;;;;5030443;28;20041;-44
2023/03/27 08:34:48;;;;;;;8.50;1.60;;;7.20;99.90;;;;;;5031569;28;20029;-44
2023/03/27 08:37:14;;;;;;;8.73;1.67;;;6.70;99.90;;;;;;5032237;28;20048;-47
2023/03/27 08:39:40;;;;;;;7.90;1.60;;;6.20;99.90;;;;;;5032405;28;20063;-51
2023/03/27 08:42:12;;;;;;;5.20;1.20;;;5.40;99.90;;;;;;5032870;28;20506;-41
2023/03/27 08:44:38;;;;;;;6.25;1.92;;;4.90;99.90;;;;;;5026729;28;20049;-51
2023/03/27 08:47:25;;;;;;;6.47;1.35;;;4.60;99.90;;;;;;5030048;28;20053;-40
2023/03/27 08:49:55;;;;;;;5.70;1.50;;;4.40;99.90;;;;;;5029911;28;20095;-39
2023/03/27 08:52:27;;;;;;;10.93;1.90;;;4.30;99.90;;;;;;5030904;28;20380;-42
2023/03/27 08:54:59;;;;;;;4.10;1.40;;;4.30;99.90;;;;;;5022877;28;20380;-48
2023/03/27 08:57:27;;;;;;;3.50;1.13;;;4.40;99.90;;;;;;5014909;28;20056;-51
2023/03/27 08:59:59;;;;;;;7.22;1.52;;;4.80;99.90;;;;;;5019761;28;20045;-46
2023/03/27 09:02:38;;;;;;;7.82;1.83;;;5.00;99.90;;;;;;5026306;28;20040;-48
2023/03/27 09:05:25;;;;;;;4.18;1.60;;;5.20;99.90;;;;;;5027891;28;20384;-42
2023/03/27 09:08:18;;;;;;;3.05;1.20;;;5.50;99.90;;;;;;5032432;28;20044;-41
2023/03/27 09:10:52;;;;;;;3.95;1.23;;;5.80;99.90;;;;;;5024775;28;20134;-40
2023/03/27 09:13:25;;;;;;;4.97;1.33;;;6.10;99.90;;;;;;5029147;28;20041;-41
2023/03/27 09:16:25;;;;;;;5.20;1.50;;;6.50;99.90;;;;;;5013960;28;20952;-38
2023/03/27 09:19:19;;;;;;;6.85;1.35;;;6.80;99.90;;;;;;5028868;28;20571;-49
2023/03/27 09:21:50;;;;;;;7.78;1.20;;;6.90;99.90;;;;;;5028008;28;20057;-44
2023/03/27 09:24:32;;;;;;;7.28;1.50;;;7.20;99.90;;;;;;5031426;28;20391;-51
2023/03/27 09:27:10;;;;;;;5.40;1.45;;;7.30;99.90;;;;;;5031001;28;20044;-44
2023/03/27 09:29:38;;;;;;;4.38;1.23;;;7.60;99.90;;;;;;5020518;28;20120;-44
2023/03/27 09:32:13;;;;;;;5.47;1.73;;;7.70;99.90;;;;;;5025591;28;20061;-41
2023/03/27 09:34:40;;;;;;;8.55;1.70;;;8.00;99.90;;;;;;5033956;28;20480;-43
2023/03/27 09:37:12;;;;;;;6.50;1.98;;;8.30;99.90;;;;;;5031090;28;20162;-44
2023/03/27 09:39:42;;;;;;;7.15;1.77;;;8.50;99.90;;;;;;5032179;28;20049;-47
2023/03/27 09:42:21;;;;;;;8.85;1.45;;;8.60;99.90;;;;;;5034273;28;20049;-43
2023/03/27 09:44:55;;;;;;;8.15;1.77;;;8.60;99.90;;;;;;5037659;28;20045;-44
2023/03/27 09:47:31;;;;;;;11.25;1.63;;;8.40;99.90;;;;;;5031790;28;20044;-37
2023/03/27 09:50:24;;;;;;;4.18;1.23;;;8.20;99.90;;;;;;5032169;28;20045;-46
2023/03/27 09:52:53;;;;;;;5.07;1.15;;;8.40;99.90;;;;;;5029696;28;20041;-44
2023/03/27 09:55:26;;;;;;;4.90;1.25;;;8.30;99.90;;;;;;5038737;28;20438;-38
2023/03/27 09:57:59;;;;;;;4.28;1.20;;;8.30;99.90;;;;;;5021974;28;20076;-43
2023/03/27 10:00:31;;;;;;;6.63;1.80;;;8.40;99.90;;;;;;5028172;28;20563;-38
2023/03/27 10:03:02;;;;;;;2.63;0.90;;;8.40;99.90;;;;;;5032881;28;20049;-47
2023/03/27 10:05:30;;;;;;;9.77;1.60;;;8.50;99.90;;;;;;5036590;28;20057;-41
2023/03/27 10:07:57;;;;;;;6.47;1.58;;;8.50;99.90;;;;;;5030691;28;20045;-43
2023/03/27 10:10:25;;;;;;;5.97;1.58;;;8.40;99.90;;;;;;5038603;28;20450;-44
2023/03/27 10:12:56;;;;;;;4.38;1.08;;;8.50;99.90;;;;;;5029854;28;20045;-43
2023/03/27 10:15:34;;;;;;;5.45;1.80;;;8.60;99.90;;;;;;5025461;28;20562;-47
2023/03/27 10:18:03;;;;;;;5.72;1.50;;;8.70;99.90;;;;;;5019444;28;20050;-43
2023/03/27 10:20:30;;;;;;;5.35;1.50;;;8.70;99.90;;;;;;5031468;28;20824;-43
2023/03/27 10:23:07;;;;;;;7.70;1.58;;;8.70;99.90;;;;;;5031749;28;20076;-44
2023/03/27 10:25:40;;;;;;;8.10;1.40;;;8.70;99.90;;;;;;5031836;28;20080;-41
2023/03/27 10:28:15;;;;;;;6.22;1.52;;;8.80;99.90;;;;;;5031149;28;20414;-46
2023/03/27 10:30:41;;;;;;;4.90;1.20;;;8.80;99.90;;;;;;5028461;28;20045;-44
2023/03/27 10:33:07;;;;;;;9.75;1.60;;;8.80;99.90;;;;;;5029100;28;20048;-44
2023/03/27 10:35:39;;;;;;;5.85;1.20;;;8.90;99.90;;;;;;5027241;28;20045;-52
2023/03/27 10:38:16;;;;;;;8.35;2.25;;;8.80;99.90;;;;;;5026431;28;20114;-38
2023/03/27 10:40:49;;;;;;;4.90;1.63;;;9.00;99.90;;;;;;5026620;28;20576;-47
2023/03/27 10:43:32;;;;;;;3.65;1.15;;;9.10;99.90;;;;;;5033729;28;20049;-45
2023/03/27 10:46:03;;;;;;;5.68;1.20;;;9.20;99.90;;;;;;5036671;28;20403;-50
2023/03/27 10:48:49;;;;;;;5.88;1.30;;;9.20;99.90;;;;;;5036003;28;20639;-43
2023/03/27 10:51:38;;;;;;;6.88;1.85;;;9.10;99.90;;;;;;5020822;28;20053;-40
2023/03/27 10:54:33;;;;;;;15.85;2.53;;;9.30;99.90;;;;;;5029137;28;20502;-46
2023/03/27 10:57:08;;;;;;;6.93;1.15;;;9.60;99.90;;;;;;5033045;28;20474;-41
2023/03/27 11:00:12;;;;;;;10.52;1.77;;;9.70;99.90;;;;;;5036265;28;20053;-39
2023/03/27 11:02:56;;;;;;;4.28;1.20;;;9.10;99.90;;;;;;5009198;28;20240;-44
2023/03/27 11:05:32;;;;;;;4.32;1.20;;;7.90;99.90;;;;;;5011523;28;20057;-47
2023/03/27 11:08:10;;;;;;;3.22;0.75;;;7.20;99.90;;;;;;5005552;28;20358;-42
2023/03/27 11:10:40;;;;;;;3.10;0.90;;;6.80;99.90;;;;;;5003742;28;20076;-40
2023/03/27 11:13:17;;;;;;;2.78;0.77;;;6.80;99.90;;;;;;5008718;28;20415;-41
2023/03/27 11:16:10;;;;;;;5.20;1.13;;;6.90;99.90;;;;;;5007552;28;20041;-48
2023/03/27 11:18:47;;;;;;;6.50;1.30;;;7.20;99.90;;;;;;5010522;28;20412;-37
2023/03/27 11:21:25;;;;;;;5.18;1.05;;;7.50;99.90;;;;;;5008328;28;20183;-47
2023/03/27 11:23:56;;;;;;;6.18;1.00;;;7.70;99.90;;;;;;5005489;28;20049;-37
2023/03/27 11:26:26;;;;;;;7.15;1.10;;;8.00;99.90;;;;;;4998206;28;20160;-47
2023/03/27 11:29:19;;;;;;;8.02;1.38;;;8.20;99.90;;;;;;4996954;28;20439;-44
2023/03/27 11:31:48;;;;;;;7.55;1.45;;;8.50;99.90;;;;;;4993725;28;20046;-46
2023/03/27 11:34:32;;;;;;;9.00;2.00;;;8.50;99.90;;;;;;4997351;28;20443;-51
2023/03/27 11:37:11;;;;;;;4.43;1.55;;;8.70;99.90;;;;;;5011992;28;20045;-43
2023/03/27 11:40:06;;;;;;;8.32;1.58;;;8.80;99.90;;;;;;5014815;28;20057;-45
2023/03/27 11:42:38;;;;;;;10.90;2.10;;;8.90;99.90;;;;;;5028785;28;20053;-45
2023/03/27 11:45:08;;;;;;;4.72;1.50;;;9.10;99.90;;;;;;5035408;28;20105;-46
2023/03/27 11:48:31;;;;;;;2.85;0.90;;;7.80;99.90;;;;;;5035245;28;20041;-46
2023/03/27 11:51:02;;;;;;;5.90;1.67;;;6.80;99.90;;;;;;5029400;28;20329;-47
2023/03/27 11:54:12;;;;;;;6.22;1.45;;;6.30;99.90;;;;;;5023522;28;20083;-45
2023/03/27 11:56:37;;;;;;;7.22;2.35;;;6.30;99.90;;;;;;5027871;28;20060;-47
2023/03/27 11:59:18;;;;;;;7.53;1.30;;;6.50;99.90;;;;;;5031665;28;20664;-45
2023/03/27 12:01:54;;;;;;;7.68;1.60;;;6.80;99.90;;;;;;5028292;28;20052;-48
2023/03/27 12:04:33;;;;;;;6.30;2.08;;;7.10;99.90;;;;;;5028183;28;20045;-43
2023/03/27 12:07:26;;;;;;;12.98;2.38;;;7.40;99.90;;;;;;5030544;28;20049;-48
2023/03/27 12:10:10;;;;;;;10.07;1.30;;;7.60;99.90;;;;;;5015796;28;20049;-46
2023/03/27 12:12:35;;;;;;;9.85;1.70;;;7.70;99.90;;;;;;5032800;28;20041;-48
2023/03/27 12:15:24;;;;;;;8.07;2.30;;;7.90;99.90;;;;;;5015658;22;20073;-39
2023/03/27 12:18:21;;;;;;;7.15;1.55;;;8.10;99.90;;;;;;4995691;28;20050;-41
2023/03/27 12:21:13;;;;;;;5.72;1.77;;;8.50;99.90;;;;;;4994537;28;20081;-43
2023/03/27 12:23:45;;;;;;;9.85;1.60;;;8.70;99.90;;;;;;4984482;28;20133;-53
2023/03/27 12:26:30;;;;;;;5.43;1.08;;;8.70;99.90;;;;;;4995906;28;20049;-39
2023/03/27 12:29:24;;;;;;;7.57;1.85;;;8.90;99.90;;;;;;4995578;28;20409;-41
2023/03/27 12:32:02;;;;;;;7.30;2.10;;;9.00;99.90;;;;;;4994254;28;20496;-48
2023/03/27 12:34:36;;;;;;;11.10;2.03;;;9.00;99.90;;;;;;4995697;28;20129;-43
2023/03/27 12:37:05;;;;;;;7.82;1.63;;;9.10;99.90;;;;;;4995230;28;20104;-46
2023/03/27 12:39:42;;;;;;;7.70;1.65;;;9.20;99.90;;;;;;4995565;28;20492;-40
2023/03/27 12:42:37;;;;;;;7.80;1.60;;;9.30;99.90;;;;;;4995788;28;20049;-46
2023/03/27 12:45:21;;;;;;;8.43;1.58;;;9.40;99.90;;;;;;4995567;28;20049;-48
2023/03/27 12:48:10;;;;;;;8.57;1.60;;;9.20;99.90;;;;;;5000525;28;20053;-42
2023/03/27 12:50:51;;;;;;;7.00;1.77;;;9.00;99.90;;;;;;5013078;28;20058;-48
2023/03/27 12:53:26;;;;;;;6.70;1.60;;;9.00;99.90;;;;;;5007171;28;20056;-41
2023/03/27 12:56:23;;;;;;;6.60;1.95;;;9.10;99.90;;;;;;5010991;28;20393;-41
2023/03/27 12:58:51;;;;;;;6.97;1.70;;;9.10;99.90;;;;;;5012030;28;20500;-37
2023/03/27 13:01:43;;;;;;;11.15;1.60;;;9.20;99.90;;;;;;5015420;28;20168;-48
2023/03/27 13:04:33;;;;;;;8.32;2.25;;;9.60;99.90;;;;;;4995788;28;20392;-40
2023/03/27 13:07:09;;;;;;;7.07;1.50;;;9.80;99.90;;;;;;5008358;28;20072;-39
2023/03/27 13:09:55;;;;;;;8.88;2.92;;;9.90;99.90;;;;;;4997769;28;20531;-44
2023/03/27 13:12:33;;;;;;;9.77;1.95;;;9.60;99.90;;;;;;4992215;28;20050;-44
2023/03/27 13:15:39;;;;;;;8.00;1.63;;;9.50;99.90;;;;;;4994911;28;20100;-39
2023/03/27 13:18:53;;;;;;;7.90;1.70;;;9.50;99.90;;;;;;4972712;28;20523;-41
2023/03/27 13:21:52;;;;;;;7.75;1.83;;;9.30;99.90;;;;;;4903100;29;20066;-39
2023/03/27 13:24:43;;;;;;;8.25;1.83;;;9.50;99.90;;;;;;4915972;29;20078;-41
2023/03/27 13:27:45;;;;;;;7.03;1.80;;;9.40;99.90;;;;;;4889884;29;20122;-53